Time;durP1;ratioP1;P1;durP2;ratioP2;P2;SDS_P1;SDS_P2;PMS_P1;PMS_P2;Temp;Humidity;BMP_temperature;BMP_pressure;BME280_temperature;BME280_humidity;BME280_pressure;Samples;Min_cycle;Max_cycle;Signal;HPM_P1;HPM_P2
2024/01/02 00:00:06;;;;;;;9.73;1.55;;;;;;;8.23;71.87;99516.03;10469865;28;20045;-64
2024/01/02 00:05:08;;;;;;;10.80;0.60;;;;;;;8.24;72.18;99503.50;10469632;28;20033;-64
2024/01/02 00:10:10;;;;;;;9.75;1.48;;;;;;;8.22;71.86;99492.97;10444606;28;20098;-64
2024/01/02 00:15:11;;;;;;;8.13;0.88;;;;;;;8.15;72.31;99489.34;10451312;28;20513;-64
2024/01/02 00:20:13;;;;;;;4.85;0.60;;;;;;;8.16;72.88;99483.00;10449943;28;20053;-64
2024/01/02 00:25:15;;;;;;;4.90;0.60;;;;;;;8.09;73.03;99468.66;10446823;28;20045;-64
2024/01/02 00:30:16;;;;;;;4.25;0.73;;;;;;;8.08;73.17;99459.81;10456373;28;20063;-64
2024/01/02 00:35:18;;;;;;;8.13;0.88;;;;;;;8.04;73.45;99455.03;10447453;28;20079;-64
2024/01/02 00:40:19;;;;;;;7.30;0.60;;;;;;;8.04;73.14;99439.78;10444369;28;20055;-64
2024/01/02 00:45:21;;;;;;;6.75;0.50;;;;;;;8.00;73.87;99427.78;10444510;28;20068;-65
2024/01/02 00:50:22;;;;;;;5.00;0.63;;;;;;;7.97;74.08;99417.44;10440491;28;20040;-65
2024/01/02 00:55:24;;;;;;;6.13;0.93;;;;;;;7.97;73.76;99417.44;10442084;28;20508;-67
2024/01/02 01:00:25;;;;;;;6.43;0.90;;;;;;;7.96;74.25;99407.75;10426682;28;20043;-66
2024/01/02 01:05:27;;;;;;;4.45;0.60;;;;;;;7.94;74.48;99397.22;10443148;28;20056;-66
2024/01/02 01:10:28;;;;;;;6.05;0.75;;;;;;;7.95;74.59;99388.16;10436283;28;20044;-66
2024/01/02 01:15:30;;;;;;;5.82;0.82;;;;;;;7.93;74.69;99378.66;10418844;28;20037;-66
2024/01/02 01:20:31;;;;;;;4.70;0.52;;;;;;;7.90;74.92;99369.16;10440256;28;20053;-67
2024/01/02 01:25:35;;;;;;;4.30;0.80;;;;;;;7.87;75.11;99349.97;10422512;28;20565;-68
2024/01/02 01:30:36;;;;;;;9.32;0.75;;;;;;;7.84;75.18;99337.81;10443828;28;20136;-68
2024/01/02 01:35:37;;;;;;;3.50;0.50;;;;;;;7.84;75.46;99320.91;10432994;28;20043;-68
2024/01/02 01:40:39;;;;;;;5.03;0.88;;;;;;;7.77;75.34;99317.31;10452603;28;20072;-68
2024/01/02 01:45:40;;;;;;;4.18;0.60;;;;;;;7.82;75.80;99307.72;10460025;28;21279;-68
2024/01/02 01:50:42;;;;;;;5.95;0.70;;;;;;;7.73;76.12;99300.78;10462540;28;20044;-68
2024/01/02 01:55:43;;;;;;;4.90;0.43;;;;;;;7.68;76.04;99296.00;10462291;28;20095;-67
2024/01/02 02:00:45;;;;;;;5.03;0.55;;;;;;;7.68;76.49;99273.75;10464126;28;20049;-69
2024/01/02 02:05:47;;;;;;;4.90;0.47;;;;;;;7.71;76.79;99268.06;10465899;28;20083;-68
2024/01/02 02:10:48;;;;;;;1.98;0.40;;;;;;;7.68;77.00;99261.22;10463073;28;20094;-66
2024/01/02 02:15:50;;;;;;;4.07;0.47;;;;;;;7.75;76.42;99247.94;10447723;28;20115;-67
2024/01/02 02:20:51;;;;;;;2.75;0.38;;;;;;;7.75;76.43;99234.56;10452028;28;20072;-68
2024/01/02 02:25:53;;;;;;;2.78;0.40;;;;;;;7.78;76.76;99226.19;10463276;28;20051;-67
2024/01/02 02:30:54;;;;;;;7.35;0.50;;;;;;;7.78;77.07;99204.78;10458832;28;20044;-67
2024/01/02 02:35:56;;;;;;;3.50;0.40;;;;;;;7.78;77.42;99190.56;10438065;28;20044;-66
2024/01/02 02:40:57;;;;;;;3.15;0.40;;;;;;;7.73;77.64;99165.19;10432220;28;20052;-67
2024/01/02 02:45:58;;;;;;;3.22;0.38;;;;;;;7.77;77.39;99144.25;10457998;28;20103;-66
2024/01/02 02:51:00;;;;;;;1.67;0.60;;;;;;;7.71;78.25;99129.78;10448945;28;20037;-65
2024/01/02 02:56:01;;;;;;;2.63;1.23;;;;;;;7.67;78.43;99115.13;10446635;28;20041;-65
2024/01/02 03:01:04;;;;;;;4.45;0.50;;;;;;;7.72;78.29;99102.03;10445759;28;20044;-65
2024/01/02 03:06:05;;;;;;;1.55;0.25;;;;;;;7.70;78.42;99097.88;10448984;28;20045;-62
2024/01/02 03:11:07;;;;;;;5.70;0.65;;;;;;;7.66;78.50;99068.03;10455866;28;20127;-60
2024/01/02 03:16:12;;;;;;;3.85;0.43;;;;;;;7.67;78.63;99058.97;10449573;28;20060;-60
2024/01/02 03:21:14;;;;;;;1.35;0.30;;;;;;;7.68;78.70;99060.63;10444592;28;20041;-60
2024/01/02 03:26:15;;;;;;;3.83;0.20;;;;;;;7.64;79.11;99043.31;10451162;28;20495;-60
2024/01/02 03:31:17;;;;;;;3.22;0.40;;;;;;;7.75;79.38;99036.63;10434042;28;20041;-60
2024/01/02 03:36:19;;;;;;;2.42;0.35;;;;;;;7.73;79.21;99010.06;10428892;28;20566;-61
2024/01/02 03:41:21;;;;;;;2.17;0.40;;;;;;;7.75;79.24;98996.50;10446640;28;20487;-61
2024/01/02 03:46:22;;;;;;;2.38;0.40;;;;;;;7.68;79.87;98984.91;10456093;28;20045;-61
2024/01/02 03:51:24;;;;;;;2.03;0.30;;;;;;;7.67;79.63;98962.69;10454879;28;20060;-61
2024/01/02 03:56:25;;;;;;;3.42;0.50;;;;;;;7.67;79.98;98954.66;10459554;28;20047;-61
2024/01/02 04:01:27;;;;;;;1.02;0.20;;;;;;;7.65;80.39;98927.28;10454082;28;20043;-62
2024/01/02 04:06:32;;;;;;;7.03;0.55;;;;;;;7.68;79.90;98918.88;10460018;28;20041;-62
2024/01/02 04:11:34;;;;;;;3.55;0.40;;;;;;;7.66;79.84;98909.38;10449426;28;20079;-62
2024/01/02 04:16:36;;;;;;;5.60;0.40;;;;;;;7.56;80.25;98896.34;10447432;28;20045;-61
2024/01/02 04:21:37;;;;;;;4.13;0.30;;;;;;;7.58;80.18;98882.78;10448209;28;20047;-61
2024/01/02 04:26:38;;;;;;;0.75;0.20;;;;;;;7.52;80.20;98871.00;10448478;28;20041;-61
2024/01/02 04:31:40;;;;;;;1.45;0.60;;;;;;;7.50;80.40;98848.97;10447946;28;20840;-61
2024/01/02 04:36:44;;;;;;;0.60;0.20;;;;;;;7.51;80.59;98834.63;10422424;28;20119;-60
2024/01/02 04:41:46;;;;;;;1.65;0.30;;;;;;;7.49;80.84;98821.44;10440615;28;20056;-61
2024/01/02 04:46:47;;;;;;;3.30;0.30;;;;;;;7.57;80.37;98798.25;10439354;28;20041;-63
2024/01/02 04:51:49;;;;;;;0.30;0.20;;;;;;;7.49;81.10;98794.69;10442085;28;20047;-63
2024/01/02 04:56:51;;;;;;;0.50;0.20;;;;;;;7.59;80.82;98782.84;10443321;28;20045;-63
2024/01/02 05:01:52;;;;;;;3.13;0.30;;;;;;;7.61;80.95;98765.56;10436860;28;20068;-63
2024/01/02 05:06:54;;;;;;;1.33;0.30;;;;;;;7.71;80.81;98755.34;10441072;28;20381;-62
2024/01/02 05:11:56;;;;;;;3.00;0.35;;;;;;;7.70;80.85;98720.75;10440927;28;20040;-63
2024/01/02 05:16:57;;;;;;;1.88;0.20;;;;;;;7.75;81.09;98716.47;10439257;28;20270;-63
2024/01/02 05:21:58;;;;;;;1.30;0.20;;;;;;;7.81;81.02;98698.81;10439899;28;20403;-63
2024/01/02 05:27:00;;;;;;;2.50;0.32;;;;;;;7.86;80.94;98695.53;10441206;28;20045;-63
2024/01/02 05:32:03;;;;;;;0.47;0.30;;;;;;;7.89;80.78;98677.22;10449258;28;20404;-63
2024/01/02 05:37:05;;;;;;;2.47;0.30;;;;;;;7.84;81.48;98668.16;10446474;28;20045;-62
2024/01/02 05:42:06;;;;;;;0.90;0.40;;;;;;;7.85;81.20;98670.63;10429343;28;20049;-62
2024/01/02 05:47:07;;;;;;;1.45;0.63;;;;;;;7.91;81.54;98652.97;10441190;28;20041;-63
2024/01/02 05:52:09;;;;;;;0.70;0.28;;;;;;;7.87;81.52;98641.00;10442148;28;20048;-63
2024/01/02 05:57:11;;;;;;;1.75;0.40;;;;;;;7.94;81.31;98640.00;10438435;28;20051;-59
2024/01/02 06:02:12;;;;;;;0.85;0.47;;;;;;;7.94;81.49;98644.53;10419412;28;20048;-60
2024/01/02 06:07:14;;;;;;;1.52;0.60;;;;;;;7.96;81.46;98650.53;10438060;28;21064;-59
2024/01/02 06:12:15;;;;;;;2.60;0.80;;;;;;;8.02;81.73;98644.38;10436560;28;20041;-59
2024/01/02 06:17:17;;;;;;;2.55;0.50;;;;;;;8.10;81.69;98627.31;10434953;28;20045;-59
2024/01/02 06:22:18;;;;;;;3.83;0.70;;;;;;;8.02;81.66;98628.31;10436952;28;20041;-58
2024/01/02 06:27:20;;;;;;;1.05;0.60;;;;;;;8.09;81.85;98622.97;10433296;28;20450;-59
2024/01/02 06:32:21;;;;;;;0.85;0.55;;;;;;;8.10;81.92;98619.28;10447001;28;20220;-59
2024/01/02 06:37:23;;;;;;;2.97;1.00;;;;;;;8.06;82.02;98629.56;10445378;28;20418;-59
2024/01/02 06:42:25;;;;;;;1.60;0.57;;;;;;;8.10;82.20;98620.09;10445378;28;20045;-59
2024/01/02 06:47:27;;;;;;;2.40;0.80;;;;;;;8.12;82.24;98601.97;10443004;28;20041;-59
2024/01/02 06:52:28;;;;;;;0.68;0.50;;;;;;;8.16;81.95;98605.06;10441669;28;20063;-61
2024/01/02 06:57:31;;;;;;;2.22;0.60;;;;;;;8.20;82.13;98613.53;10439581;28;20036;-59
2024/01/02 07:02:33;;;;;;;1.38;0.47;;;;;;;8.25;82.01;98609.19;10439177;28;20044;-61
2024/01/02 07:07:34;;;;;;;1.95;0.30;;;;;;;8.31;81.74;98604.88;10447526;28;20112;-61
2024/01/02 07:12:36;;;;;;;2.97;0.80;;;;;;;8.32;82.25;98609.22;10459392;28;20048;-62
2024/01/02 07:17:41;;;;;;;2.70;0.50;;;;;;;8.45;81.90;98606.59;10457235;28;20491;-62
2024/01/02 07:22:43;;;;;;;0.85;0.40;;;;;;;8.45;81.98;98614.63;10459049;28;20049;-68
2024/01/02 07:27:45;;;;;;;3.45;0.55;;;;;;;8.48;81.87;98599.97;10443089;28;20044;-68
2024/01/02 07:32:46;;;;;;;1.95;0.40;;;;;;;8.54;81.86;98604.50;10443195;28;20044;-69
2024/01/02 07:37:48;;;;;;;0.40;0.30;;;;;;;8.57;81.92;98601.44;10442382;28;20041;-70
2024/01/02 07:42:51;;;;;;;1.90;0.30;;;;;;;8.66;81.71;98618.09;10438522;28;20061;-70
2024/01/02 07:47:52;;;;;;;0.82;0.20;;;;;;;8.67;82.03;98599.16;10441305;28;20045;-69
2024/01/02 07:52:54;;;;;;;1.75;0.15;;;;;;;8.74;81.90;98594.59;10441612;28;20547;-68
2024/01/02 07:57:56;;;;;;;0.60;0.20;;;;;;;8.77;82.10;98608.59;10439484;28;20052;-68
2024/01/02 08:02:57;;;;;;;1.85;0.10;;;;;;;8.86;82.23;98597.47;10442033;28;20051;-69
2024/01/02 08:07:59;;;;;;;1.42;0.10;;;;;;;8.98;82.16;98604.88;10420935;28;20071;-68
2024/01/02 08:13:00;;;;;;;0.82;0.10;;;;;;;9.03;82.21;98586.34;10443221;28;20158;-69
2024/01/02 08:18:02;;;;;;;0.55;0.32;;;;;;;9.12;82.10;98593.09;10451805;28;20049;-68
2024/01/02 08:23:05;;;;;;;0.70;0.30;;;;;;;9.22;82.08;98596.19;10461946;28;20475;-68
2024/01/02 08:28:06;;;;;;;0.10;0.10;;;;;;;9.31;81.92;98616.34;10466231;28;20055;-68
2024/01/02 08:33:08;;;;;;;0.10;0.10;;;;;;;9.44;81.79;98606.59;10482436;28;20116;-67
2024/01/02 08:38:10;;;;;;;0.10;0.05;;;;;;;9.53;81.61;98641.03;10462618;28;20037;-68
2024/01/02 08:43:12;;;;;;;0.20;0.10;;;;;;;9.69;81.44;98634.38;10444340;28;20049;-68
2024/01/02 08:48:14;;;;;;;0.10;0.10;;;;;;;9.78;81.47;98651.06;10425226;28;20345;-68
2024/01/02 08:53:16;;;;;;;0.10;0.10;;;;;;;9.87;81.61;98652.47;10439318;28;20036;-68
2024/01/02 08:58:18;;;;;;;1.67;0.32;;;;;;;9.93;81.30;98651.63;10441223;28;20047;-68
2024/01/02 09:03:19;;;;;;;0.10;0.10;;;;;;;9.99;81.45;98657.16;10442877;28;20040;-68
2024/01/02 09:08:21;;;;;;;0.17;0.10;;;;;;;10.08;81.22;98672.00;10437446;28;20045;-68
2024/01/02 09:13:22;;;;;;;0.52;0.10;;;;;;;10.18;81.08;98666.16;10435242;28;20055;-68
2024/01/02 09:18:24;;;;;;;0.20;0.00;;;;;;;10.25;80.66;98669.63;10434864;28;20042;-68
2024/01/02 09:23:25;;;;;;;0.70;0.10;;;;;;;10.36;80.60;98673.53;10437573;28;20053;-69
2024/01/02 09:28:30;;;;;;;3.08;0.15;;;;;;;10.46;80.44;98679.22;10465572;28;20064;-68
2024/01/02 09:33:31;;;;;;;0.10;0.10;;;;;;;10.50;80.09;98665.16;10476287;28;20775;-68
2024/01/02 09:38:36;;;;;;;0.47;0.10;;;;;;;10.54;79.67;98680.84;10480823;28;20044;-68
2024/01/02 09:44:04;;;;;;;0.80;0.00;;;;;;;10.59;79.66;98681.03;10461096;28;20029;-67
2024/01/02 09:49:33;;;;;;;0.00;0.00;;;;;;;10.62;79.94;98670.63;10482323;28;20060;-67
2024/01/02 09:54:58;;;;;;;0.00;0.00;;;;;;;10.63;79.47;98669.63;10497982;28;20566;-68
2024/01/02 10:00:11;;;;;;;0.10;0.00;;;;;;;10.59;80.06;98678.34;10472750;28;20053;-67
2024/01/02 10:05:39;;;;;;;0.10;0.10;;;;;;;10.60;79.27;98672.72;10476985;28;20041;-68
2024/01/02 10:10:57;;;;;;;0.63;0.00;;;;;;;10.68;79.22;98660.88;10473205;28;20051;-68
2024/01/02 10:16:21;;;;;;;0.10;0.00;;;;;;;10.68;79.02;98655.50;10473615;28;20041;-67
2024/01/02 10:21:40;;;;;;;0.85;0.00;;;;;;;10.58;79.72;98660.56;10440996;28;20052;-68
2024/01/02 10:27:04;;;;;;;0.05;0.05;;;;;;;10.64;79.40;98651.63;10458690;28;20048;-68
2024/01/02 10:32:12;;;;;;;0.20;0.10;;;;;;;10.67;79.42;98649.31;10492570;28;20071;-68
2024/01/02 10:37:16;;;;;;;0.10;0.10;;;;;;;10.61;79.29;98647.50;10475438;28;20063;-68
2024/01/02 10:42:29;;;;;;;0.57;0.10;;;;;;;10.50;79.50;98653.56;10440040;28;20501;-68
2024/01/02 10:47:43;;;;;;;0.47;0.05;;;;;;;10.48;79.79;98648.41;10443243;28;20039;-70
2024/01/02 10:53:04;;;;;;;0.47;0.10;;;;;;;10.42;79.94;98656.53;10427172;28;20147;-69
2024/01/02 10:58:17;;;;;;;0.20;0.10;;;;;;;10.39;79.62;98649.75;10441943;28;20086;-66
2024/01/02 11:03:19;;;;;;;0.22;0.10;;;;;;;10.37;80.05;98643.75;10442546;28;20091;-68
2024/01/02 11:08:51;;;;;;;0.70;0.15;;;;;;;10.24;80.58;98630.38;10441610;28;20041;-69
2024/01/02 11:13:53;;;;;;;0.85;0.10;;;;;;;10.27;80.48;98640.72;10441715;28;20095;-70
2024/01/02 11:18:59;;;;;;;0.22;0.10;;;;;;;10.25;80.54;98634.72;10437785;28;20068;-70
2024/01/02 11:24:05;;;;;;;0.10;0.10;;;;;;;10.20;80.72;98639.91;10422264;28;20079;-69
2024/01/02 11:29:15;;;;;;;0.10;0.10;;;;;;;10.20;80.97;98623.81;10441638;28;20041;-68
2024/01/02 11:34:26;;;;;;;0.05;0.05;;;;;;;10.18;80.93;98617.81;10437385;28;20407;-69
2024/01/02 11:39:45;;;;;;;0.20;0.20;;;;;;;10.16;80.85;98617.22;10454520;28;20060;-71
2024/01/02 11:44:57;;;;;;;0.50;0.10;;;;;;;10.16;81.05;98612.66;10467069;28;20120;-70
2024/01/02 11:50:03;;;;;;;0.45;0.22;;;;;;;10.23;80.85;98601.88;10440937;28;20044;-66
2024/01/02 11:55:32;;;;;;;1.58;0.10;;;;;;;10.21;80.93;98594.06;10440703;28;20048;-66
2024/01/02 12:00:45;;;;;;;1.65;0.10;;;;;;;10.21;81.30;98601.25;10439871;28;20055;-66
2024/01/02 12:05:50;;;;;;;0.10;0.10;;;;;;;10.27;80.75;98574.38;10439729;28;20044;-66
2024/01/02 12:10:57;;;;;;;0.20;0.10;;;;;;;10.24;81.10;98574.00;10452997;28;20051;-66
2024/01/02 12:16:07;;;;;;;;;;;;;;;10.13;81.64;98570.16;10445953;28;20045;-66
2024/01/02 12:21:13;;;;;;;0.40;0.08;;;;;;;10.06;81.63;98562.13;10441513;28;19964;-65
2024/01/02 12:26:19;;;;;;;0.28;0.10;;;;;;;10.08;81.59;98556.56;10442920;28;20487;-67
2024/01/02 12:31:34;;;;;;;0.17;0.10;;;;;;;10.07;81.50;98544.16;10456271;28;20065;-68
2024/01/02 12:37:14;;;;;;;0.10;0.10;;;;;;;10.04;81.33;98534.69;10441668;28;20678;-66
2024/01/02 12:42:20;;;;;;;0.60;0.20;;;;;;;9.96;81.61;98523.41;10392263;28;20138;-66
2024/01/02 12:47:23;;;;;;;0.35;0.10;;;;;;;10.03;81.66;98514.25;10443622;28;20473;-69
2024/01/02 12:52:30;;;;;;;0.10;0.10;;;;;;;10.02;81.70;98509.91;10423523;28;20044;-70
2024/01/02 12:57:35;;;;;;;1.35;0.20;;;;;;;9.98;81.71;98508.72;10442019;28;20041;-64
2024/01/02 13:02:37;;;;;;;0.10;0.10;;;;;;;10.00;81.34;98500.44;10447130;28;20041;-62
2024/01/02 13:07:41;;;;;;;0.30;0.00;;;;;;;10.01;81.72;98491.34;10422153;28;20052;-63
2024/01/02 13:12:44;;;;;;;0.50;0.10;;;;;;;9.97;81.85;98487.44;10441268;28;20102;-64
2024/01/02 13:17:46;;;;;;;0.10;0.10;;;;;;;9.96;81.56;98473.22;10424124;28;20072;-64
2024/01/02 13:22:48;;;;;;;0.28;0.13;;;;;;;9.97;81.73;98474.84;10438688;28;20040;-63
2024/01/02 13:27:51;;;;;;;0.40;0.10;;;;;;;9.91;81.94;98465.81;10421981;28;20049;-62
2024/01/02 13:32:55;;;;;;;0.30;0.10;;;;;;;9.94;81.62;98464.56;10427600;28;20103;-61
2024/01/02 13:38:00;;;;;;;1.50;0.17;;;;;;;9.92;81.69;98461.28;10425454;28;20080;-62
2024/01/02 13:43:03;;;;;;;0.40;0.10;;;;;;;9.91;81.94;98451.56;10406943;28;20052;-61
2024/01/02 13:48:16;;;;;;;0.10;0.10;;;;;;;9.93;82.14;98452.16;10419134;28;20044;-61
2024/01/02 13:53:20;;;;;;;0.30;0.20;;;;;;;9.93;82.23;98446.78;10418253;28;20084;-61
2024/01/02 13:58:22;;;;;;;0.65;0.10;;;;;;;9.95;81.91;98443.91;10418787;28;20159;-61
2024/01/02 14:03:23;;;;;;;1.75;0.20;;;;;;;9.99;82.15;98432.53;10427607;28;20053;-62
2024/01/02 14:08:26;;;;;;;0.17;0.10;;;;;;;9.95;81.99;98427.81;10423859;28;20091;-67
2024/01/02 14:13:30;;;;;;;1.48;0.13;;;;;;;10.00;82.00;98415.38;10441921;28;20068;-70
2024/01/02 14:18:33;;;;;;;0.30;0.10;;;;;;;10.01;82.20;98425.06;10442584;28;20136;-69
2024/01/02 14:24:23;;;;;;;0.65;0.20;;;;;;;9.99;82.45;98413.75;10439952;28;20045;-68
2024/01/02 14:29:30;;;;;;;0.47;0.20;;;;;;;10.05;82.23;98406.66;10322029;28;20051;-65
2024/01/02 14:34:55;;;;;;;0.40;0.20;;;;;;;10.07;82.31;98396.50;10494152;28;20025;-65
2024/01/02 14:40:10;;;;;;;1.67;0.13;;;;;;;10.05;82.05;98385.16;10488794;28;20047;-65
2024/01/02 14:45:32;;;;;;;1.30;0.20;;;;;;;9.99;82.20;98370.78;10485863;28;20032;-65
2024/01/02 14:50:45;;;;;;;1.60;0.20;;;;;;;10.05;82.31;98364.53;10498248;28;20032;-65
2024/01/02 14:56:05;;;;;;;0.45;0.10;;;;;;;9.98;82.76;98358.41;10502871;28;20100;-65
2024/01/02 15:01:07;;;;;;;0.10;0.10;;;;;;;10.02;82.47;98359.59;10499503;28;20083;-64
2024/01/02 15:06:13;;;;;;;0.20;0.10;;;;;;;10.11;82.22;98338.63;10478546;28;20032;-64
2024/01/02 15:11:58;;;;;;;0.63;0.20;;;;;;;10.12;82.08;98332.25;10480783;22;20058;-90
2024/01/02 15:17:27;;;;;;;0.10;0.10;;;;;;;10.03;82.36;98326.38;10414261;28;20124;-90
2024/01/02 15:23:02;;;;;;;1.85;0.20;;;;;;;10.07;82.57;98321.34;10399414;28;20057;-91
2024/01/02 15:28:14;;;;;;;0.20;0.10;;;;;;;10.10;82.36;98318.22;10441404;28;20061;-89
2024/01/02 15:33:29;;;;;;;0.38;0.10;;;;;;;10.11;82.17;98304.59;10426206;28;20073;-89
2024/01/02 15:38:31;;;;;;;1.25;0.10;;;;;;;10.10;82.24;98289.50;10427551;28;20045;-88
2024/01/02 15:43:43;;;;;;;0.45;0.00;;;;;;;10.14;82.11;98292.56;10439216;28;20063;-86
2024/01/02 15:48:58;;;;;;;0.10;0.10;;;;;;;10.10;82.73;98291.38;10456786;28;20116;-88
2024/01/02 15:54:09;;;;;;;0.52;0.10;;;;;;;10.08;82.74;98282.72;10465084;28;20041;-86
2024/01/02 15:59:17;;;;;;;0.00;0.00;;;;;;;10.06;82.24;98272.22;10429049;28;20073;-85
2024/01/02 16:04:30;;;;;;;3.40;0.30;;;;;;;10.05;82.50;98251.78;10463637;28;20130;-86
2024/01/02 16:10:09;;;;;;;2.13;0.20;;;;;;;9.99;82.60;98258.06;10464252;28;20045;-87
2024/01/02 16:15:41;;;;;;;2.72;0.50;;;;;;;10.06;82.87;98239.19;10463238;28;20111;-86
2024/01/02 16:21:01;;;;;;;0.25;0.17;;;;;;;10.04;82.81;98233.22;10450495;28;20049;-87
2024/01/02 16:26:19;;;;;;;0.90;0.30;;;;;;;10.00;83.21;98214.06;10439599;28;20064;-81
2024/01/02 16:31:26;;;;;;;1.98;0.50;;;;;;;9.94;83.46;98209.59;10422353;28;20059;-81
2024/01/02 16:36:56;;;;;;;0.57;0.30;;;;;;;9.95;83.12;98205.84;10444803;28;20562;-82
2024/01/02 16:42:02;;;;;;;0.88;0.22;;;;;;;9.99;82.99;98204.38;10456652;28;20049;-81
2024/01/02 16:47:07;;;;;;;1.95;0.20;;;;;;;10.00;83.10;98205.19;10450200;28;20072;-81
2024/01/02 16:52:30;;;;;;;0.40;0.38;;;;;;;10.11;82.74;98180.25;10442473;28;20052;-81
2024/01/02 16:57:42;;;;;;;0.80;0.20;;;;;;;10.10;82.92;98165.22;10429880;28;20101;-82
2024/01/02 17:02:44;;;;;;;0.85;0.10;;;;;;;10.07;83.01;98149.53;10426951;28;20049;-81
2024/01/02 17:07:46;;;;;;;0.43;0.20;;;;;;;10.07;83.05;98118.19;10429168;28;20049;-86
2024/01/02 17:12:50;;;;;;;0.90;0.20;;;;;;;10.08;83.33;98111.75;10451411;28;20037;-80
2024/01/02 17:17:52;;;;;;;0.22;0.10;;;;;;;10.12;83.00;98104.88;10426447;28;20033;-81
2024/01/02 17:22:55;;;;;;;0.20;0.10;;;;;;;10.15;83.23;98103.63;10441111;28;20095;-81
2024/01/02 17:27:59;;;;;;;0.65;0.10;;;;;;;10.23;83.17;98091.72;10440006;28;20053;-84
2024/01/02 17:33:02;;;;;;;2.55;0.10;;;;;;;10.24;82.78;98091.47;10444761;28;20080;-81
2024/01/02 17:38:06;;;;;;;0.22;0.10;;;;;;;10.26;82.99;98072.47;10421195;28;20049;-81
2024/01/02 17:43:08;;;;;;;1.42;0.10;;;;;;;10.22;83.19;98066.72;10450404;28;20045;-83
2024/01/02 17:48:13;;;;;;;0.52;0.10;;;;;;;10.23;83.29;98073.75;10456551;28;20045;-84
2024/01/02 17:53:16;;;;;;;0.47;0.10;;;;;;;10.24;83.04;98066.50;10451013;28;20040;-82
2024/01/02 17:58:24;;;;;;;0.00;0.00;;;;;;;10.28;83.22;98059.63;10428933;28;20144;-84
2024/01/02 18:03:44;;;;;;;0.40;0.20;;;;;;;10.27;82.93;98052.63;10423945;28;20041;-83
2024/01/02 18:09:15;;;;;;;0.40;0.20;;;;;;;10.29;83.01;98054.03;10428515;28;20041;-85
2024/01/02 18:14:37;;;;;;;0.98;0.15;;;;;;;10.28;83.25;98051.56;10411737;28;20068;-85
2024/01/02 18:19:38;;;;;;;1.35;0.20;;;;;;;10.30;82.91;98036.88;10427376;28;20075;-85
2024/01/02 18:25:10;;;;;;;1.73;0.20;;;;;;;10.30;83.29;98028.03;10427826;28;20636;-84
2024/01/02 18:30:17;;;;;;;0.40;0.30;;;;;;;10.31;82.97;98011.69;10434881;28;20041;-83
2024/01/02 18:35:38;;;;;;;1.70;0.20;;;;;;;10.30;83.43;98010.03;10436037;28;20075;-84
2024/01/02 18:41:12;;;;;;;0.50;0.20;;;;;;;10.35;82.98;98014.72;10431669;28;20080;-84
2024/01/02 18:46:18;;;;;;;1.27;0.20;;;;;;;10.37;83.59;97998.34;10436374;28;20628;-84
2024/01/02 18:51:35;;;;;;;0.40;0.20;;;;;;;10.39;83.44;97993.59;10443818;28;20038;-84
2024/01/02 18:56:42;;;;;;;2.08;0.30;;;;;;;10.42;83.10;97993.94;10457030;28;20045;-83
2024/01/02 19:01:55;;;;;;;1.20;0.30;;;;;;;10.44;83.15;97991.81;10484682;28;20052;-83
2024/01/02 19:07:11;;;;;;;0.47;0.10;;;;;;;10.45;83.46;97976.56;10483109;28;20036;-83
2024/01/02 19:12:13;;;;;;;0.10;0.00;;;;;;;10.48;83.17;97981.44;10491243;28;20102;-83
2024/01/02 19:17:15;;;;;;;1.40;0.10;;;;;;;10.51;83.43;97971.03;10466327;28;20089;-84
2024/01/02 19:22:18;;;;;;;2.70;0.10;;;;;;;10.54;83.09;97974.31;10480459;28;20048;-84
2024/01/02 19:27:22;;;;;;;1.55;0.10;;;;;;;10.53;83.71;97986.94;10491509;28;20032;-82
2024/01/02 19:32:23;;;;;;;0.20;0.10;;;;;;;10.59;83.47;97971.75;10477100;28;20033;-83
2024/01/02 19:37:25;;;;;;;0.93;0.10;;;;;;;10.60;83.10;97990.31;10481530;28;20029;-83
2024/01/02 19:42:27;;;;;;;0.00;0.00;;;;;;;10.56;83.52;97989.13;10465106;28;20041;-83
2024/01/02 19:47:31;;;;;;;1.40;0.28;;;;;;;10.62;83.03;97990.06;10470755;28;20047;-83
2024/01/02 19:52:33;;;;;;;0.30;0.00;;;;;;;10.63;82.93;98005.97;10460283;28;20041;-84
2024/01/02 19:57:35;;;;;;;0.65;0.10;;;;;;;10.66;83.09;97997.44;10443511;28;20510;-84
2024/01/02 20:02:45;;;;;;;0.05;0.00;;;;;;;10.71;82.76;98005.59;10433689;28;20044;-80
2024/01/02 20:07:47;;;;;;;0.13;0.10;;;;;;;10.79;82.57;97996.38;10422259;28;20137;-81
2024/01/02 20:12:55;;;;;;;0.20;0.00;;;;;;;10.82;82.42;97987.84;10449807;28;20072;-81
2024/01/02 20:17:59;;;;;;;0.20;0.10;;;;;;;10.83;82.32;97986.78;10441161;28;20037;-82
2024/01/02 20:23:14;;;;;;;0.68;0.05;;;;;;;10.84;82.28;97968.78;10439822;28;20057;-81
2024/01/02 20:28:16;;;;;;;0.60;0.10;;;;;;;10.74;81.86;97998.94;10444284;28;20045;-83
2024/01/02 20:33:32;;;;;;;0.00;0.00;;;;;;;10.66;81.75;98012.72;10453793;28;20081;-81
2024/01/02 20:38:39;;;;;;;0.30;0.00;;;;;;;10.62;81.80;97993.56;10409030;28;20040;-81
2024/01/02 20:43:41;;;;;;;1.27;0.10;;;;;;;10.61;82.23;97991.94;10441126;28;20112;-82
2024/01/02 20:48:58;;;;;;;0.28;0.10;;;;;;;10.65;81.57;97986.94;10432226;28;20045;-83
2024/01/02 20:54:01;;;;;;;0.10;0.00;;;;;;;10.75;81.51;97997.09;10461769;28;20079;-81
2024/01/02 20:59:08;;;;;;;0.10;0.05;;;;;;;10.79;81.15;97993.69;10465490;28;20049;-83
2024/01/02 21:04:21;;;;;;;0.65;0.10;;;;;;;10.88;80.69;98004.88;10459882;28;20140;-83
2024/01/02 21:09:26;;;;;;;0.10;0.10;;;;;;;10.81;81.41;98014.97;10459441;28;20104;-83
2024/01/02 21:14:29;;;;;;;0.57;0.05;;;;;;;10.84;81.29;98030.59;10446091;28;20105;-85
2024/01/02 21:19:41;;;;;;;0.50;0.05;;;;;;;10.83;81.06;98026.28;10445866;28;20119;-85
2024/01/02 21:24:43;;;;;;;0.20;0.00;;;;;;;10.79;81.24;98033.19;10473508;28;20061;-82
2024/01/02 21:29:44;;;;;;;0.63;0.00;;;;;;;10.77;81.24;98044.16;10435956;28;20044;-81
2024/01/02 21:34:47;;;;;;;0.95;0.00;;;;;;;10.79;80.93;98050.13;10447705;28;20055;-81
2024/01/02 21:39:49;;;;;;;0.15;0.00;;;;;;;10.69;81.41;98049.91;10434014;28;20048;-81
2024/01/02 21:44:51;;;;;;;0.52;0.00;;;;;;;10.65;81.71;98033.41;10431665;28;20277;-83
2024/01/02 21:49:52;;;;;;;0.40;0.00;;;;;;;10.67;81.28;98052.00;10435558;28;20108;-82
2024/01/02 21:54:57;;;;;;;0.60;0.10;;;;;;;10.64;81.52;98053.28;10449606;28;20076;-83
2024/01/02 21:59:58;;;;;;;0.00;0.00;;;;;;;10.66;81.78;98047.66;10452995;28;20045;-82
2024/01/02 22:05:00;;;;;;;1.48;0.10;;;;;;;10.74;81.81;98060.75;10437432;28;20458;-83
2024/01/02 22:10:25;;;;;;;0.20;0.10;;;;;;;10.75;81.27;98056.22;10431016;28;20080;-82
2024/01/02 22:15:30;;;;;;;0.05;0.00;;;;;;;10.78;81.81;98064.63;10435725;28;20077;-83
2024/01/02 22:20:32;;;;;;;0.82;0.10;;;;;;;10.85;81.72;98067.19;10431916;28;20053;-82
2024/01/02 22:25:37;;;;;;;0.10;0.10;;;;;;;10.94;81.59;98084.59;10432926;28;20392;-81
2024/01/02 22:30:41;;;;;;;1.48;0.10;;;;;;;11.03;80.93;98063.53;10438101;28;20431;-81
2024/01/02 22:35:43;;;;;;;1.85;0.10;;;;;;;11.06;81.33;98082.72;10434590;28;20044;-82
2024/01/02 22:40:45;;;;;;;1.27;0.10;;;;;;;11.06;81.07;98084.59;10431826;28;20049;-82
2024/01/02 22:45:47;;;;;;;0.30;0.10;;;;;;;11.05;81.19;98070.31;10431142;28;20045;-82
2024/01/02 22:50:48;;;;;;;0.10;0.10;;;;;;;11.08;81.24;98071.72;10416885;28;20040;-82
2024/01/02 22:55:50;;;;;;;0.43;0.10;;;;;;;11.06;81.33;98077.34;10428609;28;20130;-82
2024/01/02 23:00:51;;;;;;;0.52;0.10;;;;;;;11.08;81.49;98077.13;10430160;28;20104;-83
2024/01/02 23:05:53;;;;;;;0.30;0.10;;;;;;;11.11;80.96;98055.91;10433097;28;20037;-82
2024/01/02 23:10:55;;;;;;;0.85;0.10;;;;;;;11.23;80.87;98060.47;10433512;28;20100;-84
2024/01/02 23:16:09;;;;;;;1.85;0.05;;;;;;;11.31;80.49;98068.16;10432258;28;20055;-83
2024/01/02 23:21:11;;;;;;;0.10;0.10;;;;;;;11.36;80.01;98068.28;10427755;28;20045;-83
2024/01/02 23:26:15;;;;;;;0.20;0.08;;;;;;;11.41;79.89;98073.75;10433360;28;20395;-83
2024/01/02 23:31:17;;;;;;;0.22;0.10;;;;;;;11.46;79.87;98083.81;10432398;28;20053;-82
2024/01/02 23:36:19;;;;;;;1.58;0.10;;;;;;;11.45;79.86;98083.00;10414859;28;20100;-81
2024/01/02 23:41:24;;;;;;;0.40;0.05;;;;;;;11.18;80.23;98088.09;10426405;28;20048;-82
2024/01/02 23:46:26;;;;;;;0.10;0.10;;;;;;;11.06;80.58;98080.03;10432504;28;20044;-81
2024/01/02 23:51:27;;;;;;;0.20;0.10;;;;;;;10.98;80.77;98083.06;10433594;28;20045;-82